Time;durP1;ratioP1;P1;durP2;ratioP2;P2;SDS_P1;SDS_P2;PMS_P1;PMS_P2;Temp;Humidity;BMP_temperature;BMP_pressure;BME280_temperature;BME280_humidity;BME280_pressure;Samples;Min_cycle;Max_cycle;Signal;HPM_P1;HPM_P2
2022/06/15 00:00:32;;;;;;;7.30;4.28;;;;;;;12.11;92.09;98401.88;5054321;28;20190;-69
2022/06/15 00:02:58;;;;;;;6.28;3.72;;;;;;;12.14;92.40;98401.78;5046202;28;20025;-69
2022/06/15 00:05:23;;;;;;;7.47;3.95;;;;;;;12.18;92.82;98402.56;5046195;28;20021;-69
2022/06/15 00:07:49;;;;;;;5.07;3.70;;;;;;;12.16;91.91;98394.69;5045929;28;20033;-69
2022/06/15 00:10:14;;;;;;;7.78;4.30;;;;;;;12.14;92.11;98393.00;5046139;28;20028;-69
2022/06/15 00:12:40;;;;;;;6.40;3.63;;;;;;;12.07;91.45;98389.69;5045998;28;20022;-69
2022/06/15 00:15:07;;;;;;;7.78;4.20;;;;;;;11.96;90.76;98391.75;5050010;28;20024;-69
2022/06/15 00:17:32;;;;;;;6.35;3.40;;;;;;;11.74;90.70;98390.63;5065828;28;20025;-69
2022/06/15 00:19:58;;;;;;;6.95;3.92;;;;;;;11.75;91.70;98392.38;5065689;28;20190;-69
2022/06/15 00:22:23;;;;;;;9.07;3.88;;;;;;;11.54;91.34;98395.53;5065799;28;20021;-69
2022/06/15 00:24:48;;;;;;;6.95;4.07;;;;;;;11.33;92.16;98382.09;5063635;28;20029;-69
2022/06/15 00:27:14;;;;;;;8.52;4.00;;;;;;;11.27;93.01;98390.16;5065176;28;20407;-69
2022/06/15 00:29:39;;;;;;;6.03;3.65;;;;;;;11.22;94.74;98387.63;5065137;28;20216;-69
2022/06/15 00:32:06;;;;;;;6.93;3.90;;;;;;;11.17;95.31;98386.88;5065023;28;20331;-69
2022/06/15 00:34:32;;;;;;;6.45;3.80;;;;;;;11.29;94.84;98397.09;5065513;28;20346;-69
2022/06/15 00:36:57;;;;;;;6.85;4.15;;;;;;;11.32;94.83;98386.47;5065487;28;20020;-69
2022/06/15 00:39:22;;;;;;;6.90;4.00;;;;;;;11.37;94.26;98389.88;5064340;28;20024;-69
2022/06/15 00:41:48;;;;;;;7.97;3.72;;;;;;;11.43;94.00;98384.44;5056209;28;20059;-69
2022/06/15 00:44:19;;;;;;;8.80;3.58;;;;;;;11.45;93.49;98384.41;5045437;28;20025;-69
2022/06/15 00:46:48;;;;;;;6.40;3.73;;;;;;;11.42;93.22;98385.31;5045410;28;20229;-69
2022/06/15 00:49:32;;;;;;;6.38;3.67;;;;;;;11.43;93.33;98379.16;5045390;28;20216;-69
2022/06/15 00:52:06;;;;;;;6.47;3.17;;;;;;;11.39;93.30;98372.22;5045202;28;20088;-69
2022/06/15 00:54:31;;;;;;;4.93;3.40;;;;;;;11.27;93.63;98369.94;5048006;28;20204;-69
2022/06/15 00:56:57;;;;;;;8.30;3.78;;;;;;;11.29;92.95;98360.22;5057045;28;20043;-69
2022/06/15 00:59:30;;;;;;;8.45;3.97;;;;;;;11.09;93.17;98365.16;5054237;28;20035;-69
2022/06/15 01:01:56;;;;;;;8.13;3.63;;;;;;;11.16;93.58;98369.34;5046180;28;20037;-69
2022/06/15 01:04:23;;;;;;;5.57;3.70;;;;;;;11.28;93.98;98362.88;5045049;28;20036;-69
2022/06/15 01:07:15;;;;;;;6.45;3.22;;;;;;;11.19;93.02;98368.38;5045020;28;20029;-69
2022/06/15 01:10:06;;;;;;;5.40;3.53;;;;;;;11.00;92.10;98357.47;5045310;28;20244;-69
2022/06/15 01:12:41;;;;;;;4.57;3.00;;;;;;;11.12;92.29;98357.16;5051695;28;20037;-69
2022/06/15 01:15:48;;;;;;;9.50;3.72;;;;;;;11.11;92.69;98352.81;5064257;28;20028;-69
2022/06/15 01:18:16;;;;;;;5.22;3.33;;;;;;;11.06;92.71;98352.06;5056117;28;20045;-69
2022/06/15 01:20:47;;;;;;;6.82;3.85;;;;;;;11.02;92.76;98345.13;5061164;28;20063;-69
2022/06/15 01:23:26;;;;;;;5.72;2.90;;;;;;;11.01;92.92;98342.53;5051844;28;20068;-69
2022/06/15 01:26:12;;;;;;;5.93;3.67;;;;;;;11.01;93.24;98348.66;5047612;28;20107;-69
2022/06/15 01:28:37;;;;;;;6.35;3.30;;;;;;;11.01;93.35;98346.03;5064177;28;20024;-69
2022/06/15 01:31:15;;;;;;;12.93;3.72;;;;;;;10.98;93.54;98343.47;5064461;28;20052;-69
2022/06/15 01:34:17;;;;;;;5.40;3.50;;;;;;;10.99;93.27;98339.94;5064441;28;20070;-69
2022/06/15 01:37:01;;;;;;;7.40;3.78;;;;;;;10.90;92.84;98340.19;5063872;28;20048;-69
2022/06/15 01:39:43;;;;;;;5.72;3.47;;;;;;;10.54;93.23;98335.84;5064383;28;20074;-69
2022/06/15 01:42:16;;;;;;;6.30;3.53;;;;;;;10.61;94.06;98343.53;5064398;28;20027;-69
2022/06/15 01:44:46;;;;;;;12.98;3.33;;;;;;;10.69;94.23;98344.22;5064315;28;20025;-69
2022/06/15 01:47:17;;;;;;;5.00;3.42;;;;;;;10.51;94.26;98334.13;5050949;28;20075;-69
2022/06/15 01:49:50;;;;;;;4.55;3.15;;;;;;;10.62;94.30;98344.38;5044288;28;20220;-69
2022/06/15 01:52:19;;;;;;;6.25;3.65;;;;;;;10.56;93.57;98334.00;5055528;28;20021;-69
2022/06/15 01:54:53;;;;;;;9.18;3.55;;;;;;;10.21;95.18;98336.59;5063654;28;20025;-69
2022/06/15 01:57:20;;;;;;;5.05;3.33;;;;;;;10.29;96.02;98340.78;5061994;28;20052;-69
2022/06/15 01:59:54;;;;;;;5.70;3.40;;;;;;;10.22;95.55;98333.09;5063535;28;20091;-69
2022/06/15 02:02:43;;;;;;;7.35;3.25;;;;;;;10.15;94.94;98331.47;5063269;28;20088;-69
2022/06/15 02:05:18;;;;;;;5.88;3.58;;;;;;;10.22;95.80;98338.34;5063557;28;20028;-69
2022/06/15 02:08:00;;;;;;;6.00;3.95;;;;;;;10.30;95.74;98346.91;5044072;28;20089;-69
2022/06/15 02:10:34;;;;;;;4.85;3.17;;;;;;;10.31;94.98;98340.75;5044069;28;20031;-69
2022/06/15 02:13:11;;;;;;;6.20;3.55;;;;;;;10.14;95.23;98350.78;5043947;28;20021;-69
2022/06/15 02:15:41;;;;;;;9.35;3.63;;;;;;;9.88;96.25;98353.09;5045142;28;20220;-69
2022/06/15 02:18:12;;;;;;;7.15;3.78;;;;;;;9.76;96.94;98348.06;5043838;28;20029;-69
2022/06/15 02:20:43;;;;;;;4.65;3.42;;;;;;;9.74;97.90;98347.22;5044006;28;20028;-69
2022/06/15 02:23:11;;;;;;;6.70;3.63;;;;;;;9.84;97.52;98351.44;5043958;28;20025;-69
2022/06/15 02:25:43;;;;;;;4.75;2.70;;;;;;;9.77;96.30;98348.03;5051465;28;20040;-69
2022/06/15 02:28:09;;;;;;;4.80;3.20;;;;;;;9.76;96.47;98348.94;5063232;28;20025;-69
2022/06/15 02:30:35;;;;;;;6.70;3.47;;;;;;;9.91;96.86;98355.66;5063880;28;20035;-69
2022/06/15 02:33:11;;;;;;;5.80;3.67;;;;;;;10.00;96.20;98358.09;5067779;28;20315;-69
2022/06/15 02:35:36;;;;;;;8.13;3.67;;;;;;;9.99;95.43;98358.97;5067800;28;20342;-69
2022/06/15 02:38:02;;;;;;;4.97;2.95;;;;;;;10.02;95.56;98356.28;5067892;28;20025;-69
2022/06/15 02:40:27;;;;;;;12.10;3.72;;;;;;;10.00;94.40;98358.09;5067702;28;20021;-69
2022/06/15 02:42:53;;;;;;;5.68;3.00;;;;;;;10.05;94.42;98356.22;5067864;28;20040;-69
2022/06/15 02:45:26;;;;;;;5.35;3.10;;;;;;;10.03;94.14;98356.25;5067837;28;20316;-69
2022/06/15 02:47:52;;;;;;;7.03;3.53;;;;;;;9.89;94.16;98355.69;5067825;28;20028;-69
2022/06/15 02:50:20;;;;;;;6.25;3.22;;;;;;;9.84;94.97;98357.53;5065493;28;20074;-69
2022/06/15 02:52:54;;;;;;;5.60;3.30;;;;;;;9.91;94.82;98358.28;5066900;28;20032;-69
2022/06/15 02:55:21;;;;;;;5.20;3.58;;;;;;;9.81;94.48;98354.13;5066893;28;20029;-69
2022/06/15 02:57:50;;;;;;;5.72;3.60;;;;;;;9.72;94.94;98356.94;5066906;28;20032;-69
2022/06/15 03:00:19;;;;;;;5.90;3.50;;;;;;;9.86;95.15;98357.50;5067376;28;20089;-69
2022/06/15 03:02:45;;;;;;;5.20;3.40;;;;;;;9.80;95.32;98358.50;5067268;28;20021;-69
2022/06/15 03:05:11;;;;;;;5.90;3.45;;;;;;;9.55;93.58;98348.53;5067265;28;20044;-69
2022/06/15 03:07:37;;;;;;;5.10;3.20;;;;;;;9.65;95.03;98357.94;5057956;28;20025;-69
2022/06/15 03:10:03;;;;;;;8.57;4.18;;;;;;;9.78;95.45;98357.66;5066407;28;20031;-69
2022/06/15 03:12:28;;;;;;;5.63;3.33;;;;;;;9.80;95.74;98363.75;5066511;28;20269;-69
2022/06/15 03:14:54;;;;;;;4.20;2.90;;;;;;;9.82;94.97;98363.72;5066547;28;20024;-69
2022/06/15 03:17:19;;;;;;;7.07;3.45;;;;;;;9.80;94.88;98362.88;5049454;28;20029;-69
2022/06/15 03:19:44;;;;;;;4.53;3.20;;;;;;;9.76;95.06;98358.59;5046930;28;20049;-69
2022/06/15 03:22:10;;;;;;;8.75;3.45;;;;;;;9.62;94.75;98350.13;5047266;28;20209;-69
2022/06/15 03:24:35;;;;;;;7.07;3.13;;;;;;;9.64;94.75;98356.19;5047002;28;20025;-69
2022/06/15 03:27:01;;;;;;;6.65;3.60;;;;;;;9.68;94.54;98350.00;5060781;28;20070;-69
2022/06/15 03:29:26;;;;;;;6.68;3.28;;;;;;;9.51;94.97;98346.84;5066060;28;20040;-69
2022/06/15 03:31:51;;;;;;;7.50;3.88;;;;;;;9.40;94.79;98354.06;5066137;28;20029;-69
2022/06/15 03:34:17;;;;;;;4.57;3.15;;;;;;;9.31;94.45;98359.50;5066241;28;20029;-69
2022/06/15 03:36:42;;;;;;;9.90;3.13;;;;;;;9.40;94.79;98359.31;5054725;28;20340;-69
2022/06/15 03:39:07;;;;;;;9.38;3.30;;;;;;;9.53;95.30;98366.06;5046748;28;20025;-69
2022/06/15 03:41:33;;;;;;;5.45;3.55;;;;;;;9.54;95.32;98357.28;5046142;28;20021;-69
2022/06/15 03:43:59;;;;;;;10.65;3.15;;;;;;;9.55;95.67;98359.03;5046620;28;20033;-69
2022/06/15 03:46:24;;;;;;;7.85;3.30;;;;;;;9.55;95.64;98359.03;5047676;28;20021;-69
2022/06/15 03:48:50;;;;;;;4.15;3.08;;;;;;;9.47;94.94;98363.56;5046535;28;20096;-69
2022/06/15 03:51:15;;;;;;;6.05;3.35;;;;;;;9.58;95.47;98374.72;5046466;28;20029;-69
2022/06/15 03:53:40;;;;;;;5.15;3.03;;;;;;;9.66;95.69;98367.56;5046403;28;20316;-69
2022/06/15 03:56:06;;;;;;;8.05;3.45;;;;;;;9.63;95.08;98365.00;5057079;28;20047;-69
2022/06/15 03:58:31;;;;;;;5.80;3.65;;;;;;;9.47;95.10;98371.44;5065751;28;20039;-69
2022/06/15 04:00:57;;;;;;;4.10;2.83;;;;;;;9.56;94.66;98372.13;5065431;28;20324;-69
2022/06/15 04:03:22;;;;;;;5.10;3.10;;;;;;;9.61;94.62;98380.78;5065679;28;20021;-69
2022/06/15 04:05:54;;;;;;;5.13;3.38;;;;;;;9.50;94.55;98372.25;5064282;28;20323;-69
2022/06/15 04:08:35;;;;;;;5.80;3.55;;;;;;;9.38;95.71;98387.38;5065292;28;20375;-69
2022/06/15 04:11:58;;;;;;;9.50;3.72;;;;;;;9.59;96.15;98381.72;5063879;28;20021;-69
2022/06/15 04:13:57;;;;;;;6.90;3.33;;;;;;;9.71;95.99;98373.59;5064005;28;20105;-69
2022/06/15 04:16:22;;;;;;;10.20;3.88;;;;;;;9.76;96.18;98379.63;5065441;28;20040;-69
2022/06/15 04:18:48;;;;;;;5.57;3.35;;;;;;;9.80;95.37;98382.16;5065242;28;20272;-69
2022/06/15 04:21:13;;;;;;;5.45;3.53;;;;;;;9.72;95.51;98388.47;5064612;28;20024;-69
2022/06/15 04:23:38;;;;;;;6.90;3.70;;;;;;;9.77;95.71;98381.34;5065341;28;20204;-69
2022/06/15 04:26:04;;;;;;;6.05;3.63;;;;;;;9.88;95.87;98380.25;5062939;28;20025;-69
2022/06/15 04:28:35;;;;;;;3.75;2.65;;;;;;;9.90;96.66;98382.84;5045843;28;20041;-69
2022/06/15 04:31:01;;;;;;;6.72;3.63;;;;;;;10.36;96.47;98383.59;5045853;28;20029;-69
2022/06/15 04:33:28;;;;;;;5.18;3.38;;;;;;;11.62;92.68;98398.88;5053628;28;20032;-69
2022/06/15 04:35:54;;;;;;;7.47;3.58;;;;;;;12.80;87.16;98394.44;5045612;28;20022;-69
2022/06/15 04:38:19;;;;;;;6.75;3.33;;;;;;;13.80;82.92;98406.91;5047243;28;20127;-69
2022/06/15 04:40:45;;;;;;;4.45;3.03;;;;;;;14.52;79.28;98398.91;5047703;28;20347;-69
2022/06/15 04:43:10;;;;;;;3.90;2.83;;;;;;;14.94;74.74;98397.22;5045726;28;20044;-69
2022/06/15 04:45:36;;;;;;;4.57;2.90;;;;;;;15.29;72.81;98403.72;5045436;28;20025;-69
2022/06/15 04:48:02;;;;;;;4.90;3.00;;;;;;;15.66;72.00;98404.78;5045613;28;20021;-69
2022/06/15 04:50:28;;;;;;;3.70;2.70;;;;;;;16.10;70.95;98406.34;5045356;28;20344;-69
2022/06/15 04:52:54;;;;;;;5.47;3.08;;;;;;;16.32;69.14;98406.22;5044569;28;20052;-69
2022/06/15 04:55:21;;;;;;;6.15;2.67;;;;;;;16.68;68.04;98410.72;5045169;28;20026;-69
2022/06/15 04:57:48;;;;;;;4.15;2.63;;;;;;;16.96;67.11;98411.13;5045239;28;20021;-69
2022/06/15 05:00:17;;;;;;;3.25;2.63;;;;;;;17.31;66.23;98421.88;5045386;28;20079;-69
2022/06/15 05:02:42;;;;;;;4.95;2.70;;;;;;;17.75;65.60;98423.19;5045056;28;20198;-69
2022/06/15 05:05:08;;;;;;;4.97;3.13;;;;;;;18.02;64.67;98419.06;5045118;28;20027;-69
2022/06/15 05:07:34;;;;;;;5.10;2.90;;;;;;;18.33;63.87;98413.84;5044971;28;20083;-69
2022/06/15 05:10:00;;;;;;;4.43;2.80;;;;;;;18.46;62.55;98418.47;5045022;28;20033;-69
2022/06/15 05:12:26;;;;;;;6.78;2.88;;;;;;;18.08;63.32;98414.31;5045065;28;20205;-69
2022/06/15 05:14:51;;;;;;;3.50;2.25;;;;;;;18.53;63.22;98429.66;5044867;28;20279;-69
2022/06/15 05:17:20;;;;;;;4.28;2.70;;;;;;;18.95;61.86;98427.28;5044845;28;20079;-69
2022/06/15 05:19:45;;;;;;;4.72;2.75;;;;;;;19.04;63.33;98438.31;5044694;28;20100;-69
2022/06/15 05:22:11;;;;;;;4.30;2.97;;;;;;;19.22;64.14;98439.06;5044684;28;20026;-69
2022/06/15 05:24:38;;;;;;;4.15;2.47;;;;;;;19.66;62.27;98442.75;5044721;28;20033;-69
2022/06/15 05:27:04;;;;;;;4.43;2.70;;;;;;;20.02;61.43;98440.53;5044849;28;20309;-69
2022/06/15 05:29:30;;;;;;;4.05;2.65;;;;;;;20.12;60.07;98436.41;5044854;28;20044;-69
2022/06/15 05:31:56;;;;;;;5.55;2.80;;;;;;;20.58;59.59;98439.78;5044473;28;20059;-69
2022/06/15 05:34:22;;;;;;;5.03;2.47;;;;;;;21.27;59.15;98448.69;5044575;28;20340;-69
2022/06/15 05:36:48;;;;;;;4.13;2.67;;;;;;;21.50;57.13;98444.50;5044501;28;20049;-69
2022/06/15 05:39:14;;;;;;;6.63;2.92;;;;;;;21.79;57.90;98454.16;5044468;28;20347;-69
2022/06/15 05:41:40;;;;;;;3.28;2.42;;;;;;;21.90;57.59;98449.81;5044655;28;20092;-69
2022/06/15 05:46:59;;;;;;;5.32;2.70;;;;;;;22.05;57.43;98439.88;5044330;28;20028;-69
2022/06/15 05:49:25;;;;;;;5.45;2.83;;;;;;;22.38;57.59;98450.94;5044306;28;20088;-69
2022/06/15 05:51:50;;;;;;;6.00;3.63;;;;;;;22.54;56.16;98447.13;5044447;28;20301;-69
2022/06/15 05:54:16;;;;;;;5.18;2.72;;;;;;;23.33;55.45;98455.72;5044329;28;20097;-69
2022/06/15 05:56:41;;;;;;;5.80;3.10;;;;;;;23.33;54.77;98455.72;5044181;28;20062;-69
2022/06/15 05:59:07;;;;;;;6.15;3.00;;;;;;;24.03;53.53;98464.75;5044210;28;20319;-69
2022/06/15 06:01:34;;;;;;;5.10;3.08;;;;;;;23.80;53.95;98458.41;5044246;28;20328;-69
2022/06/15 06:04:01;;;;;;;4.63;2.60;;;;;;;23.73;53.16;98449.06;5044040;28;20021;-69
2022/06/15 06:06:28;;;;;;;6.93;2.80;;;;;;;24.40;51.15;98451.06;5044201;28;20209;-69
2022/06/15 06:08:53;;;;;;;5.05;2.72;;;;;;;24.66;49.89;98457.97;5044031;28;20021;-69
2022/06/15 06:11:20;;;;;;;5.03;2.63;;;;;;;24.23;51.13;98447.97;5044305;28;20368;-69
2022/06/15 06:13:47;;;;;;;5.97;2.70;;;;;;;23.83;48.95;98444.75;5043895;28;20041;-69
2022/06/15 06:16:13;;;;;;;6.82;3.00;;;;;;;24.25;52.36;98446.88;5043934;28;20027;-69
2022/06/15 06:18:39;;;;;;;6.60;2.85;;;;;;;23.30;51.22;98429.06;5043924;28;20064;-69
2022/06/15 06:21:05;;;;;;;5.95;3.00;;;;;;;23.58;51.50;98439.50;5043942;28;20317;-69
2022/06/15 06:23:32;;;;;;;5.72;2.85;;;;;;;23.93;53.10;98437.69;5043868;28;20029;-69
2022/06/15 06:25:57;;;;;;;5.40;2.60;;;;;;;24.53;51.98;98450.94;5043862;28;20029;-69
2022/06/15 06:28:30;;;;;;;9.13;2.65;;;;;;;25.23;51.53;98464.09;5043747;28;20028;-69
2022/06/15 06:30:57;;;;;;;6.28;2.92;;;;;;;25.45;48.70;98459.66;5043797;28;20316;-69
2022/06/15 06:33:28;;;;;;;8.60;3.78;;;;;;;25.59;47.22;98449.47;5043711;28;20347;-69
2022/06/15 06:35:54;;;;;;;4.68;2.75;;;;;;;25.90;46.58;98451.31;5043796;28;20092;-69
2022/06/15 06:38:21;;;;;;;7.82;3.00;;;;;;;26.12;44.96;98450.38;5043785;28;20047;-69
2022/06/15 06:40:47;;;;;;;8.40;3.08;;;;;;;25.43;44.19;98443.63;5043734;28;20021;-69
2022/06/15 06:43:13;;;;;;;9.45;3.15;;;;;;;26.25;43.03;98456.44;5043747;28;20021;-69
2022/06/15 06:45:38;;;;;;;6.22;2.80;;;;;;;26.91;41.82;98464.13;5043698;28;20067;-69
2022/06/15 06:48:04;;;;;;;4.82;2.90;;;;;;;27.72;39.96;98472.97;5043673;28;20051;-69
2022/06/15 06:50:29;;;;;;;4.85;2.60;;;;;;;27.77;41.52;98464.44;5043603;28;20028;-69
2022/06/15 06:52:55;;;;;;;4.32;2.58;;;;;;;28.21;40.35;98470.19;5043584;28;20320;-69
2022/06/15 06:55:27;;;;;;;6.03;3.55;;;;;;;28.17;39.84;98466.06;5043575;28;20096;-69
2022/06/15 06:57:57;;;;;;;3.85;2.65;;;;;;;28.51;40.59;98470.03;5043524;28;20024;-69
2022/06/15 07:00:23;;;;;;;8.73;3.35;;;;;;;28.57;39.80;98469.44;5043525;28;20245;-69
2022/06/15 07:02:48;;;;;;;5.38;2.95;;;;;;;28.97;39.27;98480.91;5043536;28;20017;-69
2022/06/15 07:05:13;;;;;;;9.77;3.22;;;;;;;29.41;39.01;98481.16;5043469;28;20026;-69
2022/06/15 07:07:39;;;;;;;8.23;3.10;;;;;;;29.54;38.42;98478.97;5043532;28;20028;-69
2022/06/15 07:10:05;;;;;;;4.47;2.50;;;;;;;29.55;37.98;98480.69;5043593;28;20092;-69
2022/06/15 07:12:32;;;;;;;5.72;3.05;;;;;;;29.90;37.83;98486.19;5043367;28;20021;-69
2022/06/15 07:14:58;;;;;;;6.40;3.13;;;;;;;29.73;35.80;98479.72;5043376;28;20022;-69
2022/06/15 07:17:23;;;;;;;5.97;3.00;;;;;;;30.12;37.50;98488.47;5045261;28;20022;-69
2022/06/15 07:19:49;;;;;;;4.47;2.72;;;;;;;30.33;37.08;98489.00;5046937;28;20045;-69
2022/06/15 07:22:14;;;;;;;6.32;3.03;;;;;;;30.38;36.69;98482.13;5047044;28;20368;-69
2022/06/15 07:24:40;;;;;;;9.30;3.33;;;;;;;30.68;37.78;98488.97;5047020;28;20092;-69
2022/06/15 07:27:05;;;;;;;7.88;3.90;;;;;;;30.99;35.15;98492.97;5047135;28;20067;-69
2022/06/15 07:29:31;;;;;;;7.68;3.17;;;;;;;31.17;36.40;98491.03;5046870;28;20328;-69
2022/06/15 07:31:57;;;;;;;8.40;3.38;;;;;;;31.47;34.76;98498.69;5046762;28;20092;-69
2022/06/15 07:34:23;;;;;;;6.57;3.45;;;;;;;31.34;34.42;98484.69;5046790;28;20029;-69
2022/06/15 07:36:49;;;;;;;8.50;3.40;;;;;;;31.50;34.78;98497.53;5046697;28;20021;-69
2022/06/15 07:39:17;;;;;;;8.43;3.13;;;;;;;30.80;35.88;98487.75;5046778;28;20025;-69
2022/06/15 07:41:44;;;;;;;6.78;3.67;;;;;;;31.21;35.35;98486.97;5046626;28;20048;-69
2022/06/15 07:44:10;;;;;;;6.47;2.78;;;;;;;31.71;35.55;98500.66;5046650;28;20021;-69
2022/06/15 07:46:35;;;;;;;10.63;3.42;;;;;;;30.53;34.86;98485.13;5046643;28;20076;-69
2022/06/15 07:51:51;;;;;;;9.20;3.50;;;;;;;31.66;35.34;98503.88;5046421;28;20055;-69
2022/06/15 07:54:17;;;;;;;10.02;3.40;;;;;;;30.98;35.45;98491.28;5046385;28;20022;-69
2022/06/15 07:56:44;;;;;;;9.07;3.20;;;;;;;30.99;36.06;98496.53;5046327;28;20021;-69
2022/06/15 07:59:10;;;;;;;7.25;3.30;;;;;;;30.90;35.89;98488.47;5046351;28;20202;-69
2022/06/15 08:01:37;;;;;;;9.82;3.80;;;;;;;30.87;35.40;98489.66;5046315;28;20344;-69
2022/06/15 08:04:02;;;;;;;7.90;3.17;;;;;;;30.31;36.13;98483.75;5046508;28;20021;-69
2022/06/15 08:06:29;;;;;;;6.80;3.45;;;;;;;29.62;37.15;98476.38;5046158;28;20021;-69
2022/06/15 08:08:54;;;;;;;10.23;3.70;;;;;;;31.38;35.57;98491.50;5046145;28;20025;-69
2022/06/15 08:11:20;;;;;;;6.50;3.22;;;;;;;32.19;35.30;98500.81;5046139;28;20021;-69
2022/06/15 08:13:46;;;;;;;5.22;3.30;;;;;;;32.19;34.88;98496.22;5046246;28;20067;-69
2022/06/15 08:16:14;;;;;;;6.70;3.13;;;;;;;32.66;34.74;98494.59;5045976;28;20220;-69
2022/06/15 08:18:44;;;;;;;6.97;3.20;;;;;;;33.13;34.33;98493.84;5045893;28;20038;-69
2022/06/15 08:21:15;;;;;;;6.93;3.30;;;;;;;32.88;33.23;98488.47;5046006;28;20028;-69
2022/06/15 08:23:44;;;;;;;8.27;4.30;;;;;;;33.32;32.44;98490.72;5045893;28;20021;-70
2022/06/15 08:26:17;;;;;;;6.47;3.72;;;;;;;33.23;32.05;98492.63;5045804;28;20093;-70
2022/06/15 08:28:47;;;;;;;10.38;3.63;;;;;;;32.45;32.98;98480.59;5045613;28;20343;-70
2022/06/15 08:31:13;;;;;;;6.73;3.00;;;;;;;33.13;31.74;98487.38;5045820;28;20049;-70
2022/06/15 08:33:39;;;;;;;4.10;2.88;;;;;;;33.09;32.05;98488.75;5045896;28;20028;-70
2022/06/15 08:36:06;;;;;;;6.53;3.33;;;;;;;32.67;33.03;98479.94;5045629;28;20092;-70
2022/06/15 08:38:31;;;;;;;6.00;3.08;;;;;;;33.42;32.78;98483.22;5045692;28;20028;-70
2022/06/15 08:41:02;;;;;;;6.38;3.13;;;;;;;33.68;32.18;98486.50;5045565;28;20025;-70
2022/06/15 08:43:55;;;;;;;7.05;3.72;;;;;;;33.01;32.45;98477.88;5045547;28;20021;-70
2022/06/15 08:47:06;;;;;;;11.75;3.60;;;;;;;33.17;33.67;98470.66;5045433;28;20033;-70
2022/06/15 08:50:01;;;;;;;9.65;3.20;;;;;;;33.17;33.98;98479.69;5045400;28;20041;-70
2022/06/15 08:52:47;;;;;;;6.13;3.40;;;;;;;33.03;32.79;98477.69;5045236;28;20033;-70
2022/06/15 08:55:45;;;;;;;9.40;3.70;;;;;;;32.78;32.80;98485.00;5045215;28;20025;-70
2022/06/15 08:58:48;;;;;;;7.60;3.42;;;;;;;33.68;31.21;98491.97;5042200;28;20333;-70
2022/06/15 09:01:28;;;;;;;7.55;3.50;;;;;;;32.67;33.50;98479.94;5041135;28;20105;-70
2022/06/15 09:04:01;;;;;;;9.10;3.45;;;;;;;33.53;33.06;98488.31;5045393;28;20301;-70
2022/06/15 09:06:45;;;;;;;6.35;3.00;;;;;;;33.97;32.56;98489.50;5045323;28;20088;-70
2022/06/15 09:09:20;;;;;;;6.15;3.58;;;;;;;34.05;31.49;98483.97;5044972;28;20304;-70
2022/06/15 09:15:14;;;;;;;7.20;3.15;;;;;;;34.03;32.41;98478.69;5044930;28;20028;-70
2022/06/15 09:17:40;;;;;;;;;;;;;;;34.79;32.81;98495.88;5045002;28;20029;-70
2022/06/15 09:20:08;;;;;;;7.10;3.30;;;;;;;35.06;31.01;98482.66;5044825;28;20219;-70
2022/06/15 09:22:46;;;;;;;6.68;3.50;;;;;;;34.89;30.90;98479.22;5045013;28;20176;-70
2022/06/15 09:25:22;;;;;;;5.65;3.30;;;;;;;35.01;31.13;98483.22;5044938;28;20053;-70
2022/06/15 09:27:53;;;;;;;11.20;3.13;;;;;;;33.95;31.76;98475.16;5044621;28;20021;-70
2022/06/15 09:30:31;;;;;;;9.35;3.60;;;;;;;33.00;31.83;98476.16;5044719;28;20092;-70
2022/06/15 09:33:13;;;;;;;8.85;3.70;;;;;;;33.60;33.40;98489.28;5044489;28;20044;-70
2022/06/15 09:35:50;;;;;;;6.40;3.30;;;;;;;34.12;32.22;98484.94;5044622;28;20064;-70
2022/06/15 09:38:16;;;;;;;11.05;3.88;;;;;;;33.95;30.89;98483.34;5044546;28;20108;-70
2022/06/15 09:40:44;;;;;;;8.68;4.07;;;;;;;33.29;32.02;98480.16;5044299;28;20021;-70
2022/06/15 09:43:17;;;;;;;10.20;3.20;;;;;;;33.81;32.64;98486.78;5044686;28;20074;-70
2022/06/15 09:45:52;;;;;;;6.57;3.58;;;;;;;34.12;31.79;98490.41;5044371;28;20312;-70
2022/06/15 09:48:51;;;;;;;7.05;3.40;;;;;;;34.76;31.03;98478.97;5044357;28;20025;-70
2022/06/15 09:51:34;;;;;;;6.35;3.25;;;;;;;34.96;30.61;98483.78;5044310;28;20021;-70
2022/06/15 09:54:41;;;;;;;9.25;3.67;;;;;;;34.78;30.80;98474.19;5044189;28;20021;-70
2022/06/15 09:57:07;;;;;;;5.28;3.17;;;;;;;34.38;32.66;98485.47;5044204;28;20021;-70
2022/06/15 09:59:33;;;;;;;5.47;3.35;;;;;;;34.56;33.11;98480.53;5044224;28;20051;-70
2022/06/15 10:02:01;;;;;;;6.75;3.50;;;;;;;35.02;30.59;98474.00;5044043;28;20021;-70
2022/06/15 10:04:31;;;;;;;4.60;3.17;;;;;;;35.24;31.21;98473.03;5044110;28;20208;-70
2022/06/15 10:06:59;;;;;;;9.70;3.20;;;;;;;34.93;32.40;98475.09;5044107;28;20045;-70
2022/06/15 10:09:28;;;;;;;8.63;3.40;;;;;;;35.40;30.14;98478.34;5043996;28;20036;-70
2022/06/15 10:12:55;;;;;;;7.85;3.05;;;;;;;35.12;31.07;98473.69;5043935;28;20033;-70
2022/06/15 10:14:42;;;;;;;5.75;3.47;;;;;;;34.49;31.12;98461.31;5043825;28;20029;-70
2022/06/15 10:17:32;;;;;;;8.60;3.80;;;;;;;34.20;32.33;98465.78;5043963;28;20027;-70
2022/06/15 10:19:59;;;;;;;5.95;3.33;;;;;;;34.67;32.52;98477.38;5043794;28;20045;-70
2022/06/15 10:22:31;;;;;;;5.55;3.13;;;;;;;34.49;32.12;98472.22;5043881;28;20031;-70
2022/06/15 10:24:59;;;;;;;4.75;3.22;;;;;;;34.67;30.44;98466.44;5043887;28;20071;-70
2022/06/15 10:27:25;;;;;;;5.00;3.33;;;;;;;34.42;32.13;98470.41;5044024;28;20227;-70
2022/06/15 10:30:21;;;;;;;7.40;3.50;;;;;;;34.33;30.46;98457.81;5043797;28;20029;-70
2022/06/15 10:33:14;;;;;;;4.68;2.88;;;;;;;34.59;30.41;98467.38;5043319;28;20100;-70
2022/06/15 10:35:39;;;;;;;8.00;3.15;;;;;;;34.73;30.83;98462.94;5043822;28;20021;-70
2022/06/15 10:38:13;;;;;;;4.47;3.20;;;;;;;34.88;30.40;98466.59;5043791;28;20079;-70
2022/06/15 10:40:51;;;;;;;4.80;2.83;;;;;;;34.91;31.93;98461.63;5043828;28;20044;-70
2022/06/15 10:43:25;;;;;;;5.15;3.20;;;;;;;34.88;30.68;98461.13;5043699;28;20025;-70
2022/06/15 10:45:51;;;;;;;9.52;3.25;;;;;;;35.10;31.13;98460.22;5043659;28;20198;-70
2022/06/15 10:48:20;;;;;;;7.07;2.90;;;;;;;35.24;29.64;98444.84;5043629;28;20045;-70
2022/06/15 10:50:56;;;;;;;7.45;3.22;;;;;;;34.98;30.85;98448.03;5043688;28;20032;-70
2022/06/15 10:53:46;;;;;;;5.60;3.20;;;;;;;34.60;31.80;98449.06;5047124;28;20017;-70
2022/06/15 11:02:37;;;;;;;7.00;3.25;;;;;;;34.61;30.26;98437.09;5047408;28;20031;-70
2022/06/15 11:05:20;;;;;;;4.43;2.70;;;;;;;34.67;30.43;98441.84;5047483;28;20040;-70
2022/06/15 11:07:59;;;;;;;6.97;2.83;;;;;;;34.04;30.57;98444.03;5047303;28;20021;-70
2022/06/15 11:10:29;;;;;;;4.40;3.05;;;;;;;34.35;32.04;98442.06;5047295;28;20096;-70
2022/06/15 11:13:03;;;;;;;6.75;2.95;;;;;;;34.72;30.46;98444.84;5047106;28;20032;-70
2022/06/15 11:18:41;;;;;;;4.65;2.60;;;;;;;34.52;32.14;98449.13;5046970;28;20056;-70
2022/06/15 11:21:22;;;;;;;6.18;2.97;;;;;;;34.41;31.60;98441.34;5047099;28;20227;-70
2022/06/15 11:24:11;;;;;;;5.95;2.92;;;;;;;34.41;32.42;98435.88;5047010;28;20021;-70
2022/06/15 11:26:54;;;;;;;5.57;2.97;;;;;;;34.04;30.39;98433.09;5047050;28;20033;-70
2022/06/15 11:29:38;;;;;;;5.50;3.03;;;;;;;33.68;31.24;98431.91;5047186;28;20075;-70
2022/06/15 11:32:14;;;;;;;4.13;2.60;;;;;;;33.48;30.21;98436.13;5046794;28;20033;-70
2022/06/15 11:34:52;;;;;;;3.72;2.50;;;;;;;32.92;30.30;98424.38;5046854;28;20316;-70
2022/06/15 11:37:24;;;;;;;6.25;2.90;;;;;;;32.53;32.40;98420.66;5046842;28;20021;-70
2022/06/15 11:39:57;;;;;;;6.93;3.35;;;;;;;32.34;33.63;98418.28;5046723;28;20028;-70
2022/06/15 11:42:24;;;;;;;5.80;3.20;;;;;;;32.48;32.82;98424.91;5046918;28;20049;-70
2022/06/15 11:44:50;;;;;;;5.28;2.85;;;;;;;32.34;31.78;98412.84;5046687;28;20021;-70
2022/06/15 11:47:50;;;;;;;6.13;2.65;;;;;;;32.34;30.46;98418.28;5046609;28;20216;-70
2022/06/15 11:50:20;;;;;;;8.27;2.78;;;;;;;32.00;30.27;98409.41;5046813;28;20017;-70
2022/06/15 11:53:01;;;;;;;4.30;2.63;;;;;;;31.74;32.41;98411.38;5046427;28;20063;-70
2022/06/15 11:55:50;;;;;;;3.28;2.08;;;;;;;31.39;32.60;98406.19;5046474;28;20025;-70
2022/06/15 11:58:35;;;;;;;3.88;2.45;;;;;;;31.14;31.33;98409.78;5046331;28;20041;-70
2022/06/15 12:01:01;;;;;;;5.32;2.60;;;;;;;30.96;32.61;98406.28;5046305;28;20029;-70
2022/06/15 12:03:32;;;;;;;6.43;2.65;;;;;;;31.01;31.94;98410.22;5046124;28;20017;-70
2022/06/15 12:06:09;;;;;;;;;;;;;;;30.89;32.05;98399.81;5046911;28;20300;-70
2022/06/15 12:08:52;;;;;;;6.95;2.45;;;;;;;30.58;30.82;98393.13;5046466;28;19994;-70